sensor_id;sensor_type;location;lat;lon;timestamp;temperature;humidity
19033;DHT22;9649;51.042;13.804;2024-03-08T00:01:38;1.70;99.90
19033;DHT22;9649;51.042;13.804;2024-03-08T00:06:43;1.50;1.00
19033;DHT22;9649;51.042;13.804;2024-03-08T00:11:56;1.40;1.00
19033;DHT22;9649;51.042;13.804;2024-03-08T00:17:04;1.10;1.00
19033;DHT22;9649;51.042;13.804;2024-03-08T00:22:07;0.80;99.90
19033;DHT22;9649;51.042;13.804;2024-03-08T00:27:15;0.70;1.00
19033;DHT22;9649;51.042;13.804;2024-03-08T00:32:18;0.50;1.00
19033;DHT22;9649;51.042;13.804;2024-03-08T00:37:26;0.40;1.00
19033;DHT22;9649;51.042;13.804;2024-03-08T00:42:31;0.40;1.00
19033;DHT22;9649;51.042;13.804;2024-03-08T00:47:35;0.40;1.00
19033;DHT22;9649;51.042;13.804;2024-03-08T00:52:42;0.50;1.00
19033;DHT22;9649;51.042;13.804;2024-03-08T00:57:51;0.50;1.00
19033;DHT22;9649;51.042;13.804;2024-03-08T01:02:55;0.40;1.00
19033;DHT22;9649;51.042;13.804;2024-03-08T01:08:00;0.60;1.00
19033;DHT22;9649;51.042;13.804;2024-03-08T01:13:07;0.50;1.00
19033;DHT22;9649;51.042;13.804;2024-03-08T01:18:11;0.30;1.00
19033;DHT22;9649;51.042;13.804;2024-03-08T01:23:16;0.50;1.00
19033;DHT22;9649;51.042;13.804;2024-03-08T01:28:24;0.40;1.00
19033;DHT22;9649;51.042;13.804;2024-03-08T01:33:37;0.20;1.00
19033;DHT22;9649;51.042;13.804;2024-03-08T01:38:46;0.20;1.00
19033;DHT22;9649;51.042;13.804;2024-03-08T01:44:03;0.10;1.00
19033;DHT22;9649;51.042;13.804;2024-03-08T01:49:09;0.10;1.00
19033;DHT22;9649;51.042;13.804;2024-03-08T01:54:23;0.30;1.00
19033;DHT22;9649;51.042;13.804;2024-03-08T01:59:37;0.60;1.00
19033;DHT22;9649;51.042;13.804;2024-03-08T02:04:46;0.50;1.00
19033;DHT22;9649;51.042;13.804;2024-03-08T02:09:57;0.20;1.00
19033;DHT22;9649;51.042;13.804;2024-03-08T02:15:05;0.20;1.00
19033;DHT22;9649;51.042;13.804;2024-03-08T02:20:15;0.10;1.00
19033;DHT22;9649;51.042;13.804;2024-03-08T02:25:27;0.00;1.00
19033;DHT22;9649;51.042;13.804;2024-03-08T02:30:36;0.10;1.00
19033;DHT22;9649;51.042;13.804;2024-03-08T02:35:43;0.00;1.00
19033;DHT22;9649;51.042;13.804;2024-03-08T02:40:58;-0.10;2.60
19033;DHT22;9649;51.042;13.804;2024-03-08T02:46:04;-0.10;1.00
19033;DHT22;9649;51.042;13.804;2024-03-08T02:51:21;-0.20;24.30
19033;DHT22;9649;51.042;13.804;2024-03-08T02:56:38;-0.30;18.50
19033;DHT22;9649;51.042;13.804;2024-03-08T03:01:47;-0.20;1.00
19033;DHT22;9649;51.042;13.804;2024-03-08T03:06:58;0.00;1.00
19033;DHT22;9649;51.042;13.804;2024-03-08T03:12:03;-0.10;1.00
19033;DHT22;9649;51.042;13.804;2024-03-08T03:17:10;-0.20;1.00
19033;DHT22;9649;51.042;13.804;2024-03-08T03:22:21;-0.40;1.00
19033;DHT22;9649;51.042;13.804;2024-03-08T03:27:34;-0.50;40.70
19033;DHT22;9649;51.042;13.804;2024-03-08T03:32:42;-0.50;99.30
19033;DHT22;9649;51.042;13.804;2024-03-08T03:38:01;-0.60;91.50
19033;DHT22;9649;51.042;13.804;2024-03-08T03:43:16;-0.60;99.90
19033;DHT22;9649;51.042;13.804;2024-03-08T03:48:21;-0.60;95.50
19033;DHT22;9649;51.042;13.804;2024-03-08T03:53:26;-0.60;47.20
19033;DHT22;9649;51.042;13.804;2024-03-08T03:58:46;-0.70;99.90
19033;DHT22;9649;51.042;13.804;2024-03-08T04:03:54;-0.70;99.90
19033;DHT22;9649;51.042;13.804;2024-03-08T04:09:14;-1.00;99.90
19033;DHT22;9649;51.042;13.804;2024-03-08T04:14:23;-1.30;99.90
19033;DHT22;9649;51.042;13.804;2024-03-08T04:19:28;-1.00;99.90
19033;DHT22;9649;51.042;13.804;2024-03-08T04:24:37;-1.00;99.90
19033;DHT22;9649;51.042;13.804;2024-03-08T04:29:43;-1.20;99.90
19033;DHT22;9649;51.042;13.804;2024-03-08T04:34:48;-1.40;99.90
19033;DHT22;9649;51.042;13.804;2024-03-08T04:39:56;-1.50;99.90
19033;DHT22;9649;51.042;13.804;2024-03-08T04:45:08;-1.50;99.90
19033;DHT22;9649;51.042;13.804;2024-03-08T04:50:13;-1.60;99.90
19033;DHT22;9649;51.042;13.804;2024-03-08T04:55:16;-1.50;99.90
19033;DHT22;9649;51.042;13.804;2024-03-08T05:00:34;-1.50;99.90
19033;DHT22;9649;51.042;13.804;2024-03-08T05:05:37;-1.50;99.90
19033;DHT22;9649;51.042;13.804;2024-03-08T05:10:45;-1.30;99.90
19033;DHT22;9649;51.042;13.804;2024-03-08T05:15:52;-1.30;99.90
19033;DHT22;9649;51.042;13.804;2024-03-08T05:20:56;-1.30;99.90
19033;DHT22;9649;51.042;13.804;2024-03-08T05:25:59;-1.50;99.90
19033;DHT22;9649;51.042;13.804;2024-03-08T05:31:04;-1.60;99.90
19033;DHT22;9649;51.042;13.804;2024-03-08T05:36:09;-1.70;99.90
19033;DHT22;9649;51.042;13.804;2024-03-08T05:41:13;-1.90;99.90
19033;DHT22;9649;51.042;13.804;2024-03-08T05:46:18;-1.90;99.90
19033;DHT22;9649;51.042;13.804;2024-03-08T05:51:24;-1.90;99.90
19033;DHT22;9649;51.042;13.804;2024-03-08T05:56:30;-1.90;99.90
19033;DHT22;9649;51.042;13.804;2024-03-08T06:01:34;-1.80;99.90
19033;DHT22;9649;51.042;13.804;2024-03-08T06:06:38;-1.50;99.90
19033;DHT22;9649;51.042;13.804;2024-03-08T06:11:44;-1.30;99.90
19033;DHT22;9649;51.042;13.804;2024-03-08T06:16:49;-1.00;99.90
19033;DHT22;9649;51.042;13.804;2024-03-08T06:21:52;-0.60;99.90
19033;DHT22;9649;51.042;13.804;2024-03-08T06:26:55;-0.20;99.90
19033;DHT22;9649;51.042;13.804;2024-03-08T06:31:59;0.00;99.90
19033;DHT22;9649;51.042;13.804;2024-03-08T06:37:02;0.10;99.90
19033;DHT22;9649;51.042;13.804;2024-03-08T06:42:05;0.20;99.90
19033;DHT22;9649;51.042;13.804;2024-03-08T06:47:14;0.50;99.90
19033;DHT22;9649;51.042;13.804;2024-03-08T06:52:18;0.70;99.90
19033;DHT22;9649;51.042;13.804;2024-03-08T06:57:22;1.00;1.00
19033;DHT22;9649;51.042;13.804;2024-03-08T07:02:28;1.10;1.00
19033;DHT22;9649;51.042;13.804;2024-03-08T07:07:32;1.40;1.00
19033;DHT22;9649;51.042;13.804;2024-03-08T07:12:42;1.60;1.00
19033;DHT22;9649;51.042;13.804;2024-03-08T07:17:47;1.90;1.00
19033;DHT22;9649;51.042;13.804;2024-03-08T07:22:51;2.30;1.00
19033;DHT22;9649;51.042;13.804;2024-03-08T07:27:56;2.60;99.90
19033;DHT22;9649;51.042;13.804;2024-03-08T07:33:01;3.00;99.90
19033;DHT22;9649;51.042;13.804;2024-03-08T07:38:04;3.30;72.80
19033;DHT22;9649;51.042;13.804;2024-03-08T07:43:09;3.40;1.00
19033;DHT22;9649;51.042;13.804;2024-03-08T07:48:15;3.70;1.00
19033;DHT22;9649;51.042;13.804;2024-03-08T07:53:19;3.90;1.00
19033;DHT22;9649;51.042;13.804;2024-03-08T07:58:22;4.50;99.90
19033;DHT22;9649;51.042;13.804;2024-03-08T08:09:44;11.20;1.00
19033;DHT22;9649;51.042;13.804;2024-03-08T08:15:33;11.70;1.00
19033;DHT22;9649;51.042;13.804;2024-03-08T08:20:45;14.00;1.00
19033;DHT22;9649;51.042;13.804;2024-03-08T08:26:01;16.80;99.90
19033;DHT22;9649;51.042;13.804;2024-03-08T08:31:13;18.90;99.90
19033;DHT22;9649;51.042;13.804;2024-03-08T08:36:19;18.70;99.90
19033;DHT22;9649;51.042;13.804;2024-03-08T08:41:23;18.90;99.90
19033;DHT22;9649;51.042;13.804;2024-03-08T08:46:28;20.10;99.90
19033;DHT22;9649;51.042;13.804;2024-03-08T08:51:31;20.50;99.90
19033;DHT22;9649;51.042;13.804;2024-03-08T08:56:38;17.60;99.90
19033;DHT22;9649;51.042;13.804;2024-03-08T09:01:42;17.70;99.90
19033;DHT22;9649;51.042;13.804;2024-03-08T09:06:48;17.80;99.90
19033;DHT22;9649;51.042;13.804;2024-03-08T09:11:58;18.10;99.90
19033;DHT22;9649;51.042;13.804;2024-03-08T09:17:11;18.10;99.90
19033;DHT22;9649;51.042;13.804;2024-03-08T09:22:22;18.20;99.90
19033;DHT22;9649;51.042;13.804;2024-03-08T09:27:28;19.30;99.90
19033;DHT22;9649;51.042;13.804;2024-03-08T09:32:31;19.30;99.90
19033;DHT22;9649;51.042;13.804;2024-03-08T09:37:37;19.60;99.90
19033;DHT22;9649;51.042;13.804;2024-03-08T09:42:45;21.10;99.90
19033;DHT22;9649;51.042;13.804;2024-03-08T09:47:48;22.20;99.90
19033;DHT22;9649;51.042;13.804;2024-03-08T09:52:52;22.60;99.90
19033;DHT22;9649;51.042;13.804;2024-03-08T09:57:58;21.10;99.90
19033;DHT22;9649;51.042;13.804;2024-03-08T10:03:38;21.50;99.90
19033;DHT22;9649;51.042;13.804;2024-03-08T10:08:41;21.80;99.90
19033;DHT22;9649;51.042;13.804;2024-03-08T10:13:49;25.10;99.90
19033;DHT22;9649;51.042;13.804;2024-03-08T10:18:53;25.70;99.90
19033;DHT22;9649;51.042;13.804;2024-03-08T10:23:56;25.00;99.90
19033;DHT22;9649;51.042;13.804;2024-03-08T10:29:04;25.20;99.90
19033;DHT22;9649;51.042;13.804;2024-03-08T10:34:09;26.70;99.90
19033;DHT22;9649;51.042;13.804;2024-03-08T10:39:21;26.90;99.90
19033;DHT22;9649;51.042;13.804;2024-03-08T10:44:43;28.80;99.90
19033;DHT22;9649;51.042;13.804;2024-03-08T10:49:54;25.50;99.90
19033;DHT22;9649;51.042;13.804;2024-03-08T10:54:57;27.20;99.90
19033;DHT22;9649;51.042;13.804;2024-03-08T11:00:06;26.90;99.90
19033;DHT22;9649;51.042;13.804;2024-03-08T11:05:31;25.10;99.90
19033;DHT22;9649;51.042;13.804;2024-03-08T11:10:46;27.30;99.90
19033;DHT22;9649;51.042;13.804;2024-03-08T11:15:55;25.20;99.90
19033;DHT22;9649;51.042;13.804;2024-03-08T11:21:04;26.90;99.90
19033;DHT22;9649;51.042;13.804;2024-03-08T11:26:24;24.10;99.90
19033;DHT22;9649;51.042;13.804;2024-03-08T11:31:29;24.70;99.90
19033;DHT22;9649;51.042;13.804;2024-03-08T11:36:35;26.20;99.90
19033;DHT22;9649;51.042;13.804;2024-03-08T11:41:39;26.50;99.90
19033;DHT22;9649;51.042;13.804;2024-03-08T11:46:47;27.50;99.90
19033;DHT22;9649;51.042;13.804;2024-03-08T11:51:54;28.70;99.90
19033;DHT22;9649;51.042;13.804;2024-03-08T11:56:58;27.10;99.90
19033;DHT22;9649;51.042;13.804;2024-03-08T12:02:05;27.10;99.90
19033;DHT22;9649;51.042;13.804;2024-03-08T12:07:30;28.90;99.90
19033;DHT22;9649;51.042;13.804;2024-03-08T12:13:28;29.30;99.90
19033;DHT22;9649;51.042;13.804;2024-03-08T12:19:08;29.00;99.90
19033;DHT22;9649;51.042;13.804;2024-03-08T12:24:27;26.60;99.90
19033;DHT22;9649;51.042;13.804;2024-03-08T12:29:39;25.50;99.90
19033;DHT22;9649;51.042;13.804;2024-03-08T12:35:09;25.00;99.90
19033;DHT22;9649;51.042;13.804;2024-03-08T12:40:40;25.80;99.90
19033;DHT22;9649;51.042;13.804;2024-03-08T12:46:01;26.80;99.90
19033;DHT22;9649;51.042;13.804;2024-03-08T12:58:01;28.20;99.90
19033;DHT22;9649;51.042;13.804;2024-03-08T13:03:41;28.10;99.90
19033;DHT22;9649;51.042;13.804;2024-03-08T13:09:50;27.20;99.90
19033;DHT22;9649;51.042;13.804;2024-03-08T13:21:09;25.80;99.90
19033;DHT22;9649;51.042;13.804;2024-03-08T13:26:39;25.70;99.90
19033;DHT22;9649;51.042;13.804;2024-03-08T13:32:37;25.10;99.90
19033;DHT22;9649;51.042;13.804;2024-03-08T13:38:15;23.20;99.90
19033;DHT22;9649;51.042;13.804;2024-03-08T13:43:46;24.70;99.90
19033;DHT22;9649;51.042;13.804;2024-03-08T13:48:56;25.10;99.90
19033;DHT22;9649;51.042;13.804;2024-03-08T13:54:00;24.30;99.90
19033;DHT22;9649;51.042;13.804;2024-03-08T13:59:11;23.60;99.90
19033;DHT22;9649;51.042;13.804;2024-03-08T14:04:18;23.50;99.90
19033;DHT22;9649;51.042;13.804;2024-03-08T14:09:27;24.70;99.90
19033;DHT22;9649;51.042;13.804;2024-03-08T14:14:48;26.90;99.90
19033;DHT22;9649;51.042;13.804;2024-03-08T14:19:51;26.50;99.90
19033;DHT22;9649;51.042;13.804;2024-03-08T14:24:59;22.20;99.90
19033;DHT22;9649;51.042;13.804;2024-03-08T14:30:11;23.20;99.90
19033;DHT22;9649;51.042;13.804;2024-03-08T14:35:34;22.10;99.90
19033;DHT22;9649;51.042;13.804;2024-03-08T14:40:45;21.80;99.90
19033;DHT22;9649;51.042;13.804;2024-03-08T14:45:51;22.80;99.90
19033;DHT22;9649;51.042;13.804;2024-03-08T14:50:54;21.90;99.90
19033;DHT22;9649;51.042;13.804;2024-03-08T14:55:58;21.90;99.90
19033;DHT22;9649;51.042;13.804;2024-03-08T15:01:01;21.40;99.90
19033;DHT22;9649;51.042;13.804;2024-03-08T15:06:05;19.30;99.90
19033;DHT22;9649;51.042;13.804;2024-03-08T15:11:11;18.50;99.90
19033;DHT22;9649;51.042;13.804;2024-03-08T15:16:14;19.60;99.90
19033;DHT22;9649;51.042;13.804;2024-03-08T15:21:18;20.00;99.90
19033;DHT22;9649;51.042;13.804;2024-03-08T15:26:23;19.90;99.90
19033;DHT22;9649;51.042;13.804;2024-03-08T15:31:27;18.10;99.90
19033;DHT22;9649;51.042;13.804;2024-03-08T15:36:31;18.40;99.90
19033;DHT22;9649;51.042;13.804;2024-03-08T15:41:36;18.10;99.90
19033;DHT22;9649;51.042;13.804;2024-03-08T15:46:38;17.80;99.90
19033;DHT22;9649;51.042;13.804;2024-03-08T15:51:42;16.90;99.90
19033;DHT22;9649;51.042;13.804;2024-03-08T15:56:46;16.00;99.90
19033;DHT22;9649;51.042;13.804;2024-03-08T16:01:48;15.70;99.90
19033;DHT22;9649;51.042;13.804;2024-03-08T16:06:53;14.90;99.90
19033;DHT22;9649;51.042;13.804;2024-03-08T16:11:58;13.90;99.90
19033;DHT22;9649;51.042;13.804;2024-03-08T16:17:01;13.30;99.90
19033;DHT22;9649;51.042;13.804;2024-03-08T16:22:04;13.20;99.90
19033;DHT22;9649;51.042;13.804;2024-03-08T16:27:08;12.80;99.90
19033;DHT22;9649;51.042;13.804;2024-03-08T16:32:11;12.30;99.90
19033;DHT22;9649;51.042;13.804;2024-03-08T16:37:14;11.90;1.00
19033;DHT22;9649;51.042;13.804;2024-03-08T16:42:19;11.50;1.00
19033;DHT22;9649;51.042;13.804;2024-03-08T16:47:23;11.20;1.00
19033;DHT22;9649;51.042;13.804;2024-03-08T16:52:25;11.00;1.00
19033;DHT22;9649;51.042;13.804;2024-03-08T16:57:31;10.70;1.00
19033;DHT22;9649;51.042;13.804;2024-03-08T17:02:34;10.50;1.00
19033;DHT22;9649;51.042;13.804;2024-03-08T17:07:39;10.30;1.00
19033;DHT22;9649;51.042;13.804;2024-03-08T17:12:44;10.10;1.00
19033;DHT22;9649;51.042;13.804;2024-03-08T17:17:50;9.90;1.00
19033;DHT22;9649;51.042;13.804;2024-03-08T17:22:55;9.70;1.00
19033;DHT22;9649;51.042;13.804;2024-03-08T17:28:06;9.60;95.30
19033;DHT22;9649;51.042;13.804;2024-03-08T17:33:11;9.30;99.90
19033;DHT22;9649;51.042;13.804;2024-03-08T17:38:17;9.20;99.90
19033;DHT22;9649;51.042;13.804;2024-03-08T17:43:24;9.10;99.90
19033;DHT22;9649;51.042;13.804;2024-03-08T17:48:28;9.10;99.90
19033;DHT22;9649;51.042;13.804;2024-03-08T17:53:32;8.90;99.90
19033;DHT22;9649;51.042;13.804;2024-03-08T17:58:37;8.90;99.90
19033;DHT22;9649;51.042;13.804;2024-03-08T18:03:40;8.90;99.90
19033;DHT22;9649;51.042;13.804;2024-03-08T18:08:43;8.40;1.00
19033;DHT22;9649;51.042;13.804;2024-03-08T18:13:48;8.00;99.90
19033;DHT22;9649;51.042;13.804;2024-03-08T18:18:52;8.00;1.00
19033;DHT22;9649;51.042;13.804;2024-03-08T18:23:56;8.00;1.00
19033;DHT22;9649;51.042;13.804;2024-03-08T18:29:04;8.10;1.00
19033;DHT22;9649;51.042;13.804;2024-03-08T18:34:11;7.90;1.00
19033;DHT22;9649;51.042;13.804;2024-03-08T18:39:13;8.00;1.00
19033;DHT22;9649;51.042;13.804;2024-03-08T18:44:21;7.80;1.00
19033;DHT22;9649;51.042;13.804;2024-03-08T18:49:24;7.50;98.40
19033;DHT22;9649;51.042;13.804;2024-03-08T18:54:27;7.50;99.90
19033;DHT22;9649;51.042;13.804;2024-03-08T18:59:31;7.30;1.00
19033;DHT22;9649;51.042;13.804;2024-03-08T19:04:36;7.10;99.90
19033;DHT22;9649;51.042;13.804;2024-03-08T19:09:40;6.80;99.90
19033;DHT22;9649;51.042;13.804;2024-03-08T19:14:49;6.60;1.00
19033;DHT22;9649;51.042;13.804;2024-03-08T19:19:56;6.60;99.90
19033;DHT22;9649;51.042;13.804;2024-03-08T19:24:59;6.60;1.00
19033;DHT22;9649;51.042;13.804;2024-03-08T19:30:07;6.70;1.00
19033;DHT22;9649;51.042;13.804;2024-03-08T19:35:12;7.00;99.90
19033;DHT22;9649;51.042;13.804;2024-03-08T19:40:21;7.50;1.00
19033;DHT22;9649;51.042;13.804;2024-03-08T19:45:33;7.80;99.90
19033;DHT22;9649;51.042;13.804;2024-03-08T19:50:37;7.80;1.00
19033;DHT22;9649;51.042;13.804;2024-03-08T19:55:47;7.70;63.30
19033;DHT22;9649;51.042;13.804;2024-03-08T20:00:55;7.60;99.90
19033;DHT22;9649;51.042;13.804;2024-03-08T20:05:58;7.70;99.90
19033;DHT22;9649;51.042;13.804;2024-03-08T20:11:01;7.50;99.90
19033;DHT22;9649;51.042;13.804;2024-03-08T20:16:13;7.30;99.90
19033;DHT22;9649;51.042;13.804;2024-03-08T20:21:16;7.10;1.00
19033;DHT22;9649;51.042;13.804;2024-03-08T20:26:19;7.10;1.00
19033;DHT22;9649;51.042;13.804;2024-03-08T20:31:25;7.00;1.00
19033;DHT22;9649;51.042;13.804;2024-03-08T20:36:29;6.90;1.00
19033;DHT22;9649;51.042;13.804;2024-03-08T20:41:32;6.80;1.00
19033;DHT22;9649;51.042;13.804;2024-03-08T20:46:38;6.70;1.00
19033;DHT22;9649;51.042;13.804;2024-03-08T20:51:42;6.70;1.00
19033;DHT22;9649;51.042;13.804;2024-03-08T20:56:44;6.50;1.00
19033;DHT22;9649;51.042;13.804;2024-03-08T21:01:49;6.50;99.90
19033;DHT22;9649;51.042;13.804;2024-03-08T21:06:53;6.40;19.00
19033;DHT22;9649;51.042;13.804;2024-03-08T21:11:58;6.40;99.90
19033;DHT22;9649;51.042;13.804;2024-03-08T21:17:05;6.20;1.00
19033;DHT22;9649;51.042;13.804;2024-03-08T21:22:08;6.10;1.00
19033;DHT22;9649;51.042;13.804;2024-03-08T21:27:18;6.10;1.00
19033;DHT22;9649;51.042;13.804;2024-03-08T21:32:39;5.90;1.00
19033;DHT22;9649;51.042;13.804;2024-03-08T21:37:51;6.00;99.90
19033;DHT22;9649;51.042;13.804;2024-03-08T21:43:00;6.00;99.90
19033;DHT22;9649;51.042;13.804;2024-03-08T21:48:30;6.10;1.00
19033;DHT22;9649;51.042;13.804;2024-03-08T21:53:57;6.00;1.00
19033;DHT22;9649;51.042;13.804;2024-03-08T21:59:38;6.10;1.00
19033;DHT22;9649;51.042;13.804;2024-03-08T22:05:00;6.20;1.00
19033;DHT22;9649;51.042;13.804;2024-03-08T22:10:33;6.10;1.00
19033;DHT22;9649;51.042;13.804;2024-03-08T22:15:48;6.00;1.00
19033;DHT22;9649;51.042;13.804;2024-03-08T22:21:09;5.90;1.00
19033;DHT22;9649;51.042;13.804;2024-03-08T22:26:45;5.90;1.00
19033;DHT22;9649;51.042;13.804;2024-03-08T22:31:57;5.90;1.00
19033;DHT22;9649;51.042;13.804;2024-03-08T22:37:22;5.90;1.00
19033;DHT22;9649;51.042;13.804;2024-03-08T22:42:34;5.80;1.00
19033;DHT22;9649;51.042;13.804;2024-03-08T22:47:40;5.80;1.00
19033;DHT22;9649;51.042;13.804;2024-03-08T22:52:53;5.80;99.90
19033;DHT22;9649;51.042;13.804;2024-03-08T22:57:58;5.80;99.90
19033;DHT22;9649;51.042;13.804;2024-03-08T23:03:02;5.70;99.90
19033;DHT22;9649;51.042;13.804;2024-03-08T23:08:10;5.80;1.00
19033;DHT22;9649;51.042;13.804;2024-03-08T23:13:13;5.80;1.00
19033;DHT22;9649;51.042;13.804;2024-03-08T23:18:17;5.80;1.00
19033;DHT22;9649;51.042;13.804;2024-03-08T23:23:23;5.80;6.40
19033;DHT22;9649;51.042;13.804;2024-03-08T23:28:26;5.70;99.90
19033;DHT22;9649;51.042;13.804;2024-03-08T23:33:30;5.70;99.90
19033;DHT22;9649;51.042;13.804;2024-03-08T23:38:35;5.70;1.00
19033;DHT22;9649;51.042;13.804;2024-03-08T23:43:38;5.70;99.90
19033;DHT22;9649;51.042;13.804;2024-03-08T23:48:45;5.60;1.00
19033;DHT22;9649;51.042;13.804;2024-03-08T23:53:50;5.60;1.00
19033;DHT22;9649;51.042;13.804;2024-03-08T23:58:53;5.60;1.00
